sensor_id;sensor_type;location;lat;lon;timestamp;temperature;humidity
25963;DHT22;13760;52.588;13.406;2023-04-15T00:02:25;7.90;99.90
25963;DHT22;13760;52.588;13.406;2023-04-15T00:04:50;7.90;99.90
25963;DHT22;13760;52.588;13.406;2023-04-15T00:07:16;7.90;99.90
25963;DHT22;13760;52.588;13.406;2023-04-15T00:09:44;7.90;99.90
25963;DHT22;13760;52.588;13.406;2023-04-15T00:12:11;7.90;99.90
25963;DHT22;13760;52.588;13.406;2023-04-15T00:14:37;7.90;99.90
25963;DHT22;13760;52.588;13.406;2023-04-15T00:17:03;7.90;99.90
25963;DHT22;13760;52.588;13.406;2023-04-15T00:19:29;7.90;99.90
25963;DHT22;13760;52.588;13.406;2023-04-15T00:21:59;7.90;99.90
25963;DHT22;13760;52.588;13.406;2023-04-15T00:24:25;7.80;99.90
25963;DHT22;13760;52.588;13.406;2023-04-15T00:26:51;7.80;99.90
25963;DHT22;13760;52.588;13.406;2023-04-15T00:29:17;7.90;99.90
25963;DHT22;13760;52.588;13.406;2023-04-15T00:31:42;7.80;99.90
25963;DHT22;13760;52.588;13.406;2023-04-15T00:34:08;7.80;99.90
25963;DHT22;13760;52.588;13.406;2023-04-15T00:36:34;7.80;99.90
25963;DHT22;13760;52.588;13.406;2023-04-15T00:39:00;7.80;99.90
25963;DHT22;13760;52.588;13.406;2023-04-15T00:41:27;7.80;99.90
25963;DHT22;13760;52.588;13.406;2023-04-15T00:43:52;7.80;99.90
25963;DHT22;13760;52.588;13.406;2023-04-15T00:46:19;7.80;99.90
25963;DHT22;13760;52.588;13.406;2023-04-15T00:48:46;7.80;99.90
25963;DHT22;13760;52.588;13.406;2023-04-15T00:51:15;7.80;99.90
25963;DHT22;13760;52.588;13.406;2023-04-15T00:53:40;7.80;99.90
25963;DHT22;13760;52.588;13.406;2023-04-15T00:56:06;7.80;99.90
25963;DHT22;13760;52.588;13.406;2023-04-15T00:58:32;7.80;99.90
25963;DHT22;13760;52.588;13.406;2023-04-15T01:00:58;7.70;99.90
25963;DHT22;13760;52.588;13.406;2023-04-15T01:03:24;7.80;99.90
25963;DHT22;13760;52.588;13.406;2023-04-15T01:05:50;7.80;99.90
25963;DHT22;13760;52.588;13.406;2023-04-15T01:08:25;7.80;99.90
25963;DHT22;13760;52.588;13.406;2023-04-15T01:10:52;7.80;99.90
25963;DHT22;13760;52.588;13.406;2023-04-15T01:13:19;7.80;99.90
25963;DHT22;13760;52.588;13.406;2023-04-15T01:15:46;7.80;99.90
25963;DHT22;13760;52.588;13.406;2023-04-15T01:18:12;7.80;99.90
25963;DHT22;13760;52.588;13.406;2023-04-15T01:20:37;7.80;99.90
25963;DHT22;13760;52.588;13.406;2023-04-15T01:23:04;7.80;99.90
25963;DHT22;13760;52.588;13.406;2023-04-15T01:25:31;7.80;99.90
25963;DHT22;13760;52.588;13.406;2023-04-15T01:27:57;7.80;99.90
25963;DHT22;13760;52.588;13.406;2023-04-15T01:30:23;7.80;99.90
25963;DHT22;13760;52.588;13.406;2023-04-15T01:32:50;7.80;99.90
25963;DHT22;13760;52.588;13.406;2023-04-15T01:35:16;7.80;99.90
25963;DHT22;13760;52.588;13.406;2023-04-15T01:37:41;7.80;99.90
25963;DHT22;13760;52.588;13.406;2023-04-15T01:40:07;7.80;99.90
25963;DHT22;13760;52.588;13.406;2023-04-15T01:42:34;7.80;99.90
25963;DHT22;13760;52.588;13.406;2023-04-15T01:45:01;7.80;99.90
25963;DHT22;13760;52.588;13.406;2023-04-15T01:47:27;7.80;99.90
25963;DHT22;13760;52.588;13.406;2023-04-15T01:49:52;7.80;99.90
25963;DHT22;13760;52.588;13.406;2023-04-15T01:52:18;7.80;99.90
25963;DHT22;13760;52.588;13.406;2023-04-15T01:54:44;7.80;99.90
25963;DHT22;13760;52.588;13.406;2023-04-15T01:57:10;7.80;99.90
25963;DHT22;13760;52.588;13.406;2023-04-15T01:59:35;7.80;99.90
25963;DHT22;13760;52.588;13.406;2023-04-15T02:02:01;7.80;99.90
25963;DHT22;13760;52.588;13.406;2023-04-15T02:04:29;7.80;99.90
25963;DHT22;13760;52.588;13.406;2023-04-15T02:06:56;7.80;99.90
25963;DHT22;13760;52.588;13.406;2023-04-15T02:09:21;7.80;99.90
25963;DHT22;13760;52.588;13.406;2023-04-15T02:11:47;7.80;99.90
25963;DHT22;13760;52.588;13.406;2023-04-15T02:14:13;7.90;99.90
25963;DHT22;13760;52.588;13.406;2023-04-15T02:16:38;7.90;99.90
25963;DHT22;13760;52.588;13.406;2023-04-15T02:19:04;7.90;99.90
25963;DHT22;13760;52.588;13.406;2023-04-15T02:21:29;7.90;99.90
25963;DHT22;13760;52.588;13.406;2023-04-15T02:23:57;7.90;99.90
25963;DHT22;13760;52.588;13.406;2023-04-15T02:26:23;7.90;99.90
25963;DHT22;13760;52.588;13.406;2023-04-15T02:28:49;7.90;99.90
25963;DHT22;13760;52.588;13.406;2023-04-15T02:31:18;7.90;99.90
25963;DHT22;13760;52.588;13.406;2023-04-15T02:33:45;7.90;99.90
25963;DHT22;13760;52.588;13.406;2023-04-15T02:36:11;7.90;99.90
25963;DHT22;13760;52.588;13.406;2023-04-15T02:38:37;7.90;99.90
25963;DHT22;13760;52.588;13.406;2023-04-15T02:41:08;7.90;99.90
25963;DHT22;13760;52.588;13.406;2023-04-15T02:43:34;7.90;99.90
25963;DHT22;13760;52.588;13.406;2023-04-15T02:46:00;7.90;99.90
25963;DHT22;13760;52.588;13.406;2023-04-15T02:48:26;7.90;99.90
25963;DHT22;13760;52.588;13.406;2023-04-15T02:50:51;7.90;99.90
25963;DHT22;13760;52.588;13.406;2023-04-15T02:53:17;7.90;99.90
25963;DHT22;13760;52.588;13.406;2023-04-15T02:55:44;7.90;99.90
25963;DHT22;13760;52.588;13.406;2023-04-15T02:58:10;7.90;99.90
25963;DHT22;13760;52.588;13.406;2023-04-15T03:00:36;7.90;99.90
25963;DHT22;13760;52.588;13.406;2023-04-15T03:03:03;7.90;99.90
25963;DHT22;13760;52.588;13.406;2023-04-15T03:05:29;7.90;99.90
25963;DHT22;13760;52.588;13.406;2023-04-15T03:07:54;7.90;99.90
25963;DHT22;13760;52.588;13.406;2023-04-15T03:10:21;8.00;99.90
25963;DHT22;13760;52.588;13.406;2023-04-15T03:12:47;7.90;99.90
25963;DHT22;13760;52.588;13.406;2023-04-15T03:15:12;8.00;99.90
25963;DHT22;13760;52.588;13.406;2023-04-15T03:17:38;8.00;99.90
25963;DHT22;13760;52.588;13.406;2023-04-15T03:20:04;7.90;99.90
25963;DHT22;13760;52.588;13.406;2023-04-15T03:22:33;8.00;99.90
25963;DHT22;13760;52.588;13.406;2023-04-15T03:24:59;8.00;99.90
25963;DHT22;13760;52.588;13.406;2023-04-15T03:27:24;8.00;99.90
25963;DHT22;13760;52.588;13.406;2023-04-15T03:29:50;8.00;99.90
25963;DHT22;13760;52.588;13.406;2023-04-15T03:32:16;8.00;99.90
25963;DHT22;13760;52.588;13.406;2023-04-15T03:34:42;8.00;99.90
25963;DHT22;13760;52.588;13.406;2023-04-15T03:37:08;8.00;99.90
25963;DHT22;13760;52.588;13.406;2023-04-15T03:39:34;8.00;99.90
25963;DHT22;13760;52.588;13.406;2023-04-15T03:42:00;8.00;99.90
25963;DHT22;13760;52.588;13.406;2023-04-15T03:44:26;8.00;99.90
25963;DHT22;13760;52.588;13.406;2023-04-15T03:46:52;8.00;99.90
25963;DHT22;13760;52.588;13.406;2023-04-15T03:49:18;8.00;99.90
25963;DHT22;13760;52.588;13.406;2023-04-15T03:51:44;8.00;99.90
25963;DHT22;13760;52.588;13.406;2023-04-15T03:54:10;8.10;99.90
25963;DHT22;13760;52.588;13.406;2023-04-15T03:56:37;8.10;99.90
25963;DHT22;13760;52.588;13.406;2023-04-15T03:59:02;8.10;99.90
25963;DHT22;13760;52.588;13.406;2023-04-15T04:01:28;8.10;99.90
25963;DHT22;13760;52.588;13.406;2023-04-15T04:03:54;8.10;99.90
25963;DHT22;13760;52.588;13.406;2023-04-15T04:06:19;8.10;99.90
25963;DHT22;13760;52.588;13.406;2023-04-15T04:08:45;8.00;99.90
25963;DHT22;13760;52.588;13.406;2023-04-15T04:11:10;8.10;99.90
25963;DHT22;13760;52.588;13.406;2023-04-15T04:13:36;8.10;99.90
25963;DHT22;13760;52.588;13.406;2023-04-15T04:16:02;8.10;99.90
25963;DHT22;13760;52.588;13.406;2023-04-15T04:18:30;8.10;99.90
25963;DHT22;13760;52.588;13.406;2023-04-15T04:20:55;8.10;99.90
25963;DHT22;13760;52.588;13.406;2023-04-15T04:23:21;8.10;99.90
25963;DHT22;13760;52.588;13.406;2023-04-15T04:25:47;8.20;99.90
25963;DHT22;13760;52.588;13.406;2023-04-15T04:28:12;8.20;99.90
25963;DHT22;13760;52.588;13.406;2023-04-15T04:30:38;8.10;99.90
25963;DHT22;13760;52.588;13.406;2023-04-15T04:33:04;8.10;99.90
25963;DHT22;13760;52.588;13.406;2023-04-15T04:35:31;8.20;99.90
25963;DHT22;13760;52.588;13.406;2023-04-15T04:37:59;8.10;99.90
25963;DHT22;13760;52.588;13.406;2023-04-15T04:40:25;8.20;99.90
25963;DHT22;13760;52.588;13.406;2023-04-15T04:42:52;8.20;99.90
25963;DHT22;13760;52.588;13.406;2023-04-15T04:45:18;8.20;99.90
25963;DHT22;13760;52.588;13.406;2023-04-15T04:47:43;8.20;99.90
25963;DHT22;13760;52.588;13.406;2023-04-15T04:50:09;8.20;99.90
25963;DHT22;13760;52.588;13.406;2023-04-15T04:52:36;8.20;99.90
25963;DHT22;13760;52.588;13.406;2023-04-15T04:55:02;8.20;99.90
25963;DHT22;13760;52.588;13.406;2023-04-15T04:57:28;8.20;99.90
25963;DHT22;13760;52.588;13.406;2023-04-15T04:59:53;8.20;99.90
25963;DHT22;13760;52.588;13.406;2023-04-15T05:02:19;8.20;99.90
25963;DHT22;13760;52.588;13.406;2023-04-15T05:04:44;8.30;99.90
25963;DHT22;13760;52.588;13.406;2023-04-15T05:07:10;8.30;99.90
25963;DHT22;13760;52.588;13.406;2023-04-15T05:09:36;8.30;99.90
25963;DHT22;13760;52.588;13.406;2023-04-15T05:12:03;8.30;99.90
25963;DHT22;13760;52.588;13.406;2023-04-15T05:14:29;8.30;99.90
25963;DHT22;13760;52.588;13.406;2023-04-15T05:16:55;8.40;99.90
25963;DHT22;13760;52.588;13.406;2023-04-15T05:19:21;8.40;99.90
25963;DHT22;13760;52.588;13.406;2023-04-15T05:21:46;8.40;99.90
25963;DHT22;13760;52.588;13.406;2023-04-15T05:24:12;8.40;99.90
25963;DHT22;13760;52.588;13.406;2023-04-15T05:26:38;8.40;99.90
25963;DHT22;13760;52.588;13.406;2023-04-15T05:29:11;8.40;99.90
25963;DHT22;13760;52.588;13.406;2023-04-15T05:31:36;8.50;99.90
25963;DHT22;13760;52.588;13.406;2023-04-15T05:34:02;8.50;99.90
25963;DHT22;13760;52.588;13.406;2023-04-15T05:36:32;8.50;99.90
25963;DHT22;13760;52.588;13.406;2023-04-15T05:38:58;8.50;99.90
25963;DHT22;13760;52.588;13.406;2023-04-15T05:41:23;8.50;99.90
25963;DHT22;13760;52.588;13.406;2023-04-15T05:43:49;8.50;99.90
25963;DHT22;13760;52.588;13.406;2023-04-15T05:46:15;8.50;99.90
25963;DHT22;13760;52.588;13.406;2023-04-15T05:48:41;8.50;99.90
25963;DHT22;13760;52.588;13.406;2023-04-15T05:51:07;8.60;99.90
25963;DHT22;13760;52.588;13.406;2023-04-15T05:53:32;8.60;99.90
25963;DHT22;13760;52.588;13.406;2023-04-15T05:55:58;8.60;99.90
25963;DHT22;13760;52.588;13.406;2023-04-15T05:58:24;8.70;99.90
25963;DHT22;13760;52.588;13.406;2023-04-15T06:00:53;8.70;99.90
25963;DHT22;13760;52.588;13.406;2023-04-15T06:03:24;8.70;99.90
25963;DHT22;13760;52.588;13.406;2023-04-15T06:05:50;8.70;99.90
25963;DHT22;13760;52.588;13.406;2023-04-15T06:08:15;8.80;99.90
25963;DHT22;13760;52.588;13.406;2023-04-15T06:10:41;8.80;99.90
25963;DHT22;13760;52.588;13.406;2023-04-15T06:13:07;8.80;99.90
25963;DHT22;13760;52.588;13.406;2023-04-15T06:15:32;8.80;99.90
25963;DHT22;13760;52.588;13.406;2023-04-15T06:18:01;8.90;99.90
25963;DHT22;13760;52.588;13.406;2023-04-15T06:20:27;9.00;99.90
25963;DHT22;13760;52.588;13.406;2023-04-15T06:22:53;8.90;99.90
25963;DHT22;13760;52.588;13.406;2023-04-15T06:25:19;9.00;99.90
25963;DHT22;13760;52.588;13.406;2023-04-15T06:27:48;9.00;99.90
25963;DHT22;13760;52.588;13.406;2023-04-15T06:30:14;9.10;99.90
25963;DHT22;13760;52.588;13.406;2023-04-15T06:32:40;9.10;99.90
25963;DHT22;13760;52.588;13.406;2023-04-15T06:35:05;9.20;99.90
25963;DHT22;13760;52.588;13.406;2023-04-15T06:37:32;9.20;99.90
25963;DHT22;13760;52.588;13.406;2023-04-15T06:39:58;9.20;99.90
25963;DHT22;13760;52.588;13.406;2023-04-15T06:42:24;9.30;99.90
25963;DHT22;13760;52.588;13.406;2023-04-15T06:44:54;9.30;99.90
25963;DHT22;13760;52.588;13.406;2023-04-15T06:47:22;9.30;99.90
25963;DHT22;13760;52.588;13.406;2023-04-15T06:49:50;9.40;99.90
25963;DHT22;13760;52.588;13.406;2023-04-15T06:52:16;9.50;99.90
25963;DHT22;13760;52.588;13.406;2023-04-15T06:54:42;9.50;99.90
25963;DHT22;13760;52.588;13.406;2023-04-15T06:57:10;9.50;99.90
25963;DHT22;13760;52.588;13.406;2023-04-15T06:59:36;9.50;99.90
25963;DHT22;13760;52.588;13.406;2023-04-15T07:02:02;9.50;99.90
25963;DHT22;13760;52.588;13.406;2023-04-15T07:04:30;9.50;99.90
25963;DHT22;13760;52.588;13.406;2023-04-15T07:06:57;9.40;99.90
25963;DHT22;13760;52.588;13.406;2023-04-15T07:09:27;9.50;99.90
25963;DHT22;13760;52.588;13.406;2023-04-15T07:11:54;9.50;99.90
25963;DHT22;13760;52.588;13.406;2023-04-15T07:14:22;9.60;99.90
25963;DHT22;13760;52.588;13.406;2023-04-15T07:16:50;9.60;99.90
25963;DHT22;13760;52.588;13.406;2023-04-15T07:21:59;9.60;99.90
25963;DHT22;13760;52.588;13.406;2023-04-15T07:24:48;9.60;99.90
25963;DHT22;13760;52.588;13.406;2023-04-15T07:27:32;9.70;99.90
25963;DHT22;13760;52.588;13.406;2023-04-15T07:29:58;9.70;99.90
25963;DHT22;13760;52.588;13.406;2023-04-15T07:32:23;9.70;99.90
25963;DHT22;13760;52.588;13.406;2023-04-15T07:34:49;9.70;99.90
25963;DHT22;13760;52.588;13.406;2023-04-15T07:37:14;9.70;99.90
25963;DHT22;13760;52.588;13.406;2023-04-15T07:39:40;9.80;99.90
25963;DHT22;13760;52.588;13.406;2023-04-15T07:42:07;9.80;99.90
25963;DHT22;13760;52.588;13.406;2023-04-15T07:44:33;9.90;99.90
25963;DHT22;13760;52.588;13.406;2023-04-15T07:46:58;9.90;99.90
25963;DHT22;13760;52.588;13.406;2023-04-15T07:49:24;9.90;99.90
25963;DHT22;13760;52.588;13.406;2023-04-15T07:51:50;10.00;99.90
25963;DHT22;13760;52.588;13.406;2023-04-15T07:54:16;9.90;99.90
25963;DHT22;13760;52.588;13.406;2023-04-15T07:56:42;9.90;99.90
25963;DHT22;13760;52.588;13.406;2023-04-15T07:59:08;10.00;99.90
25963;DHT22;13760;52.588;13.406;2023-04-15T08:01:34;10.00;99.90
25963;DHT22;13760;52.588;13.406;2023-04-15T08:04:00;10.00;99.90
25963;DHT22;13760;52.588;13.406;2023-04-15T08:06:25;10.10;99.90
25963;DHT22;13760;52.588;13.406;2023-04-15T08:08:51;10.00;99.90
25963;DHT22;13760;52.588;13.406;2023-04-15T08:11:19;10.00;99.90
25963;DHT22;13760;52.588;13.406;2023-04-15T08:13:46;10.00;99.90
25963;DHT22;13760;52.588;13.406;2023-04-15T08:16:25;9.90;99.90
25963;DHT22;13760;52.588;13.406;2023-04-15T08:18:54;9.90;99.90
25963;DHT22;13760;52.588;13.406;2023-04-15T08:21:20;10.00;99.90
25963;DHT22;13760;52.588;13.406;2023-04-15T08:23:50;9.90;99.90
25963;DHT22;13760;52.588;13.406;2023-04-15T08:26:17;9.90;99.90
25963;DHT22;13760;52.588;13.406;2023-04-15T08:28:44;9.90;99.90
25963;DHT22;13760;52.588;13.406;2023-04-15T08:31:14;9.90;99.90
25963;DHT22;13760;52.588;13.406;2023-04-15T08:33:41;9.90;99.90
25963;DHT22;13760;52.588;13.406;2023-04-15T08:36:06;9.90;99.90
25963;DHT22;13760;52.588;13.406;2023-04-15T08:38:33;9.90;99.90
25963;DHT22;13760;52.588;13.406;2023-04-15T08:41:00;9.90;99.90
25963;DHT22;13760;52.588;13.406;2023-04-15T08:43:33;10.00;99.90
25963;DHT22;13760;52.588;13.406;2023-04-15T08:46:02;10.00;99.90
25963;DHT22;13760;52.588;13.406;2023-04-15T08:48:35;10.10;99.90
25963;DHT22;13760;52.588;13.406;2023-04-15T08:51:02;10.10;99.90
25963;DHT22;13760;52.588;13.406;2023-04-15T08:53:28;10.10;99.90
25963;DHT22;13760;52.588;13.406;2023-04-15T08:55:59;10.10;99.90
25963;DHT22;13760;52.588;13.406;2023-04-15T08:58:30;10.20;99.90
25963;DHT22;13760;52.588;13.406;2023-04-15T09:01:00;10.20;99.90
25963;DHT22;13760;52.588;13.406;2023-04-15T09:03:26;10.20;99.90
25963;DHT22;13760;52.588;13.406;2023-04-15T09:05:53;10.20;99.90
25963;DHT22;13760;52.588;13.406;2023-04-15T09:08:19;10.20;99.90
25963;DHT22;13760;52.588;13.406;2023-04-15T09:10:45;10.30;99.90
25963;DHT22;13760;52.588;13.406;2023-04-15T09:13:11;10.30;99.90
25963;DHT22;13760;52.588;13.406;2023-04-15T09:15:40;10.30;99.90
25963;DHT22;13760;52.588;13.406;2023-04-15T09:18:06;10.30;99.90
25963;DHT22;13760;52.588;13.406;2023-04-15T09:20:40;10.30;99.90
25963;DHT22;13760;52.588;13.406;2023-04-15T09:23:14;10.30;99.90
25963;DHT22;13760;52.588;13.406;2023-04-15T09:25:40;10.30;99.90
25963;DHT22;13760;52.588;13.406;2023-04-15T09:28:07;10.40;99.90
25963;DHT22;13760;52.588;13.406;2023-04-15T09:30:33;10.40;99.90
25963;DHT22;13760;52.588;13.406;2023-04-15T09:33:00;10.40;99.90
25963;DHT22;13760;52.588;13.406;2023-04-15T09:35:33;10.30;99.90
25963;DHT22;13760;52.588;13.406;2023-04-15T09:38:10;10.30;99.90
25963;DHT22;13760;52.588;13.406;2023-04-15T09:40:45;10.30;99.90
25963;DHT22;13760;52.588;13.406;2023-04-15T09:43:11;10.30;99.90
25963;DHT22;13760;52.588;13.406;2023-04-15T09:45:50;10.40;99.90
25963;DHT22;13760;52.588;13.406;2023-04-15T09:48:27;10.40;99.90
25963;DHT22;13760;52.588;13.406;2023-04-15T09:50:57;10.40;99.90
25963;DHT22;13760;52.588;13.406;2023-04-15T09:53:24;10.40;99.90
25963;DHT22;13760;52.588;13.406;2023-04-15T09:55:58;10.40;99.90
25963;DHT22;13760;52.588;13.406;2023-04-15T09:58:31;10.40;99.90
25963;DHT22;13760;52.588;13.406;2023-04-15T10:00:59;10.40;99.90
25963;DHT22;13760;52.588;13.406;2023-04-15T10:03:25;10.40;99.90
25963;DHT22;13760;52.588;13.406;2023-04-15T10:05:53;10.40;99.90
25963;DHT22;13760;52.588;13.406;2023-04-15T10:08:22;10.40;99.90
25963;DHT22;13760;52.588;13.406;2023-04-15T10:10:49;10.40;99.90
25963;DHT22;13760;52.588;13.406;2023-04-15T10:13:18;10.40;99.90
25963;DHT22;13760;52.588;13.406;2023-04-15T10:15:56;10.40;99.90
25963;DHT22;13760;52.588;13.406;2023-04-15T10:18:24;10.40;99.90
25963;DHT22;13760;52.588;13.406;2023-04-15T10:20:49;10.50;99.90
25963;DHT22;13760;52.588;13.406;2023-04-15T10:23:15;10.50;99.90
25963;DHT22;13760;52.588;13.406;2023-04-15T10:29:25;10.50;99.90
25963;DHT22;13760;52.588;13.406;2023-04-15T10:32:26;10.60;99.90
25963;DHT22;13760;52.588;13.406;2023-04-15T10:35:14;10.60;99.90
25963;DHT22;13760;52.588;13.406;2023-04-15T10:37:53;10.60;99.90
25963;DHT22;13760;52.588;13.406;2023-04-15T10:40:38;10.60;99.90
25963;DHT22;13760;52.588;13.406;2023-04-15T10:43:04;10.60;99.90
25963;DHT22;13760;52.588;13.406;2023-04-15T10:45:35;10.60;99.90
25963;DHT22;13760;52.588;13.406;2023-04-15T10:48:06;10.70;99.90
25963;DHT22;13760;52.588;13.406;2023-04-15T10:50:32;10.70;99.90
25963;DHT22;13760;52.588;13.406;2023-04-15T10:52:58;10.70;99.90
25963;DHT22;13760;52.588;13.406;2023-04-15T10:55:31;10.70;99.90
25963;DHT22;13760;52.588;13.406;2023-04-15T10:57:58;10.70;99.90
25963;DHT22;13760;52.588;13.406;2023-04-15T11:00:27;10.70;99.90
25963;DHT22;13760;52.588;13.406;2023-04-15T11:02:59;10.70;99.90
25963;DHT22;13760;52.588;13.406;2023-04-15T11:08:04;10.70;99.90
25963;DHT22;13760;52.588;13.406;2023-04-15T11:13:03;10.70;99.90
25963;DHT22;13760;52.588;13.406;2023-04-15T11:15:34;10.70;99.90
25963;DHT22;13760;52.588;13.406;2023-04-15T11:18:23;10.60;99.90
25963;DHT22;13760;52.588;13.406;2023-04-15T11:20:52;10.60;99.90
25963;DHT22;13760;52.588;13.406;2023-04-15T11:23:38;10.60;99.90
25963;DHT22;13760;52.588;13.406;2023-04-15T11:26:08;10.60;99.90
25963;DHT22;13760;52.588;13.406;2023-04-15T11:28:37;10.60;99.90
25963;DHT22;13760;52.588;13.406;2023-04-15T11:31:11;10.50;99.90
25963;DHT22;13760;52.588;13.406;2023-04-15T11:33:43;10.50;99.90
25963;DHT22;13760;52.588;13.406;2023-04-15T11:36:09;10.50;99.90
25963;DHT22;13760;52.588;13.406;2023-04-15T11:38:37;10.50;99.90
25963;DHT22;13760;52.588;13.406;2023-04-15T11:41:08;10.40;99.90
25963;DHT22;13760;52.588;13.406;2023-04-15T11:43:33;10.40;99.90
25963;DHT22;13760;52.588;13.406;2023-04-15T11:46:01;10.40;99.90
25963;DHT22;13760;52.588;13.406;2023-04-15T11:48:30;10.30;99.90
25963;DHT22;13760;52.588;13.406;2023-04-15T11:51:01;10.30;99.90
25963;DHT22;13760;52.588;13.406;2023-04-15T11:56:16;10.30;99.90
25963;DHT22;13760;52.588;13.406;2023-04-15T11:58:41;10.30;99.90
25963;DHT22;13760;52.588;13.406;2023-04-15T12:01:10;10.30;99.90
25963;DHT22;13760;52.588;13.406;2023-04-15T12:06:28;10.30;99.90
25963;DHT22;13760;52.588;13.406;2023-04-15T12:16:48;10.30;99.90
25963;DHT22;13760;52.588;13.406;2023-04-15T12:19:38;10.30;99.90
25963;DHT22;13760;52.588;13.406;2023-04-15T12:22:04;10.30;99.90
25963;DHT22;13760;52.588;13.406;2023-04-15T12:24:35;10.40;99.90
25963;DHT22;13760;52.588;13.406;2023-04-15T12:27:08;10.40;99.90
25963;DHT22;13760;52.588;13.406;2023-04-15T12:29:37;10.40;99.90
25963;DHT22;13760;52.588;13.406;2023-04-15T12:34:50;10.40;99.90
25963;DHT22;13760;52.588;13.406;2023-04-15T12:37:16;10.40;99.90
25963;DHT22;13760;52.588;13.406;2023-04-15T12:39:44;10.40;99.90
25963;DHT22;13760;52.588;13.406;2023-04-15T12:42:10;10.40;99.90
25963;DHT22;13760;52.588;13.406;2023-04-15T12:44:37;10.50;99.90
25963;DHT22;13760;52.588;13.406;2023-04-15T12:47:04;10.50;99.90
25963;DHT22;13760;52.588;13.406;2023-04-15T12:49:30;10.40;99.90
25963;DHT22;13760;52.588;13.406;2023-04-15T12:51:57;10.40;99.90
25963;DHT22;13760;52.588;13.406;2023-04-15T12:54:27;10.40;99.90
25963;DHT22;13760;52.588;13.406;2023-04-15T12:56:53;10.40;99.90
25963;DHT22;13760;52.588;13.406;2023-04-15T12:59:19;10.40;99.90
25963;DHT22;13760;52.588;13.406;2023-04-15T13:01:46;10.40;99.90
25963;DHT22;13760;52.588;13.406;2023-04-15T13:04:12;10.40;99.90
25963;DHT22;13760;52.588;13.406;2023-04-15T13:06:38;10.40;99.90
25963;DHT22;13760;52.588;13.406;2023-04-15T13:09:04;10.40;99.90
25963;DHT22;13760;52.588;13.406;2023-04-15T13:11:30;10.40;99.90
25963;DHT22;13760;52.588;13.406;2023-04-15T13:14:04;10.40;99.90
25963;DHT22;13760;52.588;13.406;2023-04-15T13:16:31;10.40;99.90
25963;DHT22;13760;52.588;13.406;2023-04-15T13:19:01;10.40;99.90
25963;DHT22;13760;52.588;13.406;2023-04-15T13:21:28;10.40;99.90
25963;DHT22;13760;52.588;13.406;2023-04-15T13:23:53;10.30;99.90
25963;DHT22;13760;52.588;13.406;2023-04-15T13:26:19;10.30;99.90
25963;DHT22;13760;52.588;13.406;2023-04-15T13:28:45;10.30;99.90
25963;DHT22;13760;52.588;13.406;2023-04-15T13:31:11;10.30;99.90
25963;DHT22;13760;52.588;13.406;2023-04-15T13:33:36;10.30;99.90
25963;DHT22;13760;52.588;13.406;2023-04-15T13:36:02;10.40;99.90
25963;DHT22;13760;52.588;13.406;2023-04-15T13:38:28;10.40;99.90
25963;DHT22;13760;52.588;13.406;2023-04-15T13:40:53;10.40;99.90
25963;DHT22;13760;52.588;13.406;2023-04-15T13:43:19;10.40;99.90
25963;DHT22;13760;52.588;13.406;2023-04-15T13:45:46;10.30;99.90
25963;DHT22;13760;52.588;13.406;2023-04-15T13:48:11;10.30;99.90
25963;DHT22;13760;52.588;13.406;2023-04-15T13:50:40;10.30;99.90
25963;DHT22;13760;52.588;13.406;2023-04-15T13:53:12;10.30;99.90
25963;DHT22;13760;52.588;13.406;2023-04-15T13:55:38;10.40;99.90
25963;DHT22;13760;52.588;13.406;2023-04-15T13:58:07;10.40;99.90
25963;DHT22;13760;52.588;13.406;2023-04-15T14:00:32;10.30;99.90
25963;DHT22;13760;52.588;13.406;2023-04-15T14:02:58;10.30;99.90
25963;DHT22;13760;52.588;13.406;2023-04-15T14:05:24;10.30;99.90
25963;DHT22;13760;52.588;13.406;2023-04-15T14:07:49;10.30;99.90
25963;DHT22;13760;52.588;13.406;2023-04-15T14:10:21;10.30;99.90
25963;DHT22;13760;52.588;13.406;2023-04-15T14:12:46;10.40;99.90
25963;DHT22;13760;52.588;13.406;2023-04-15T14:15:12;10.40;99.90
25963;DHT22;13760;52.588;13.406;2023-04-15T14:17:38;10.40;99.90
25963;DHT22;13760;52.588;13.406;2023-04-15T14:20:12;10.40;99.90
25963;DHT22;13760;52.588;13.406;2023-04-15T14:22:38;10.30;99.90
25963;DHT22;13760;52.588;13.406;2023-04-15T14:25:04;10.30;99.90
25963;DHT22;13760;52.588;13.406;2023-04-15T14:27:30;10.30;99.90
25963;DHT22;13760;52.588;13.406;2023-04-15T14:29:56;10.30;99.90
25963;DHT22;13760;52.588;13.406;2023-04-15T14:32:24;10.30;99.90
25963;DHT22;13760;52.588;13.406;2023-04-15T14:34:50;10.30;99.90
25963;DHT22;13760;52.588;13.406;2023-04-15T14:37:16;10.30;99.90
25963;DHT22;13760;52.588;13.406;2023-04-15T14:39:41;10.30;99.90
25963;DHT22;13760;52.588;13.406;2023-04-15T14:42:07;10.30;99.90
25963;DHT22;13760;52.588;13.406;2023-04-15T14:44:32;10.30;99.90
25963;DHT22;13760;52.588;13.406;2023-04-15T14:46:58;10.30;99.90
25963;DHT22;13760;52.588;13.406;2023-04-15T14:49:23;10.30;99.90
25963;DHT22;13760;52.588;13.406;2023-04-15T14:51:50;10.30;99.90
25963;DHT22;13760;52.588;13.406;2023-04-15T14:54:15;10.30;99.90
25963;DHT22;13760;52.588;13.406;2023-04-15T14:56:41;10.30;99.90
25963;DHT22;13760;52.588;13.406;2023-04-15T14:59:06;10.30;99.90
25963;DHT22;13760;52.588;13.406;2023-04-15T15:01:33;10.40;99.90
25963;DHT22;13760;52.588;13.406;2023-04-15T15:03:58;10.40;99.90
25963;DHT22;13760;52.588;13.406;2023-04-15T15:06:25;10.40;99.90
25963;DHT22;13760;52.588;13.406;2023-04-15T15:08:50;10.40;99.90
25963;DHT22;13760;52.588;13.406;2023-04-15T15:11:16;10.40;99.90
25963;DHT22;13760;52.588;13.406;2023-04-15T15:13:41;10.30;99.90
25963;DHT22;13760;52.588;13.406;2023-04-15T15:16:07;10.30;99.90
25963;DHT22;13760;52.588;13.406;2023-04-15T15:18:34;10.30;99.90
25963;DHT22;13760;52.588;13.406;2023-04-15T15:21:00;10.30;99.90
25963;DHT22;13760;52.588;13.406;2023-04-15T15:23:26;10.30;99.90
25963;DHT22;13760;52.588;13.406;2023-04-15T15:25:51;10.30;99.90
25963;DHT22;13760;52.588;13.406;2023-04-15T15:28:17;10.20;99.90
25963;DHT22;13760;52.588;13.406;2023-04-15T15:30:42;10.20;99.90
25963;DHT22;13760;52.588;13.406;2023-04-15T15:33:08;10.20;99.90
25963;DHT22;13760;52.588;13.406;2023-04-15T15:35:34;10.30;99.90
25963;DHT22;13760;52.588;13.406;2023-04-15T15:37:59;10.20;99.90
25963;DHT22;13760;52.588;13.406;2023-04-15T15:40:26;10.30;99.90
25963;DHT22;13760;52.588;13.406;2023-04-15T15:42:54;10.20;99.90
25963;DHT22;13760;52.588;13.406;2023-04-15T15:45:20;10.20;99.90
25963;DHT22;13760;52.588;13.406;2023-04-15T15:47:46;10.20;99.90
25963;DHT22;13760;52.588;13.406;2023-04-15T15:50:12;10.20;99.90
25963;DHT22;13760;52.588;13.406;2023-04-15T15:52:38;10.20;99.90
25963;DHT22;13760;52.588;13.406;2023-04-15T15:55:04;10.20;99.90